Time;durP1;ratioP1;P1;durP2;ratioP2;P2;SDS_P1;SDS_P2;PMS_P1;PMS_P2;Temp;Humidity;BMP_temperature;BMP_pressure;BME280_temperature;BME280_humidity;BME280_pressure;Samples;Min_cycle;Max_cycle;Signal;HPM_P1;HPM_P2
2021/03/06 00:01:00;;;;;;;11.65;6.32;;;0.60;99.90;;;;;;10571763;28;20135;-74
2021/03/06 00:06:03;;;;;;;9.63;6.22;;;0.50;99.90;;;;;;10554526;28;20056;-74
2021/03/06 00:11:05;;;;;;;8.93;6.22;;;0.50;99.90;;;;;;10571825;28;20147;-74
2021/03/06 00:16:06;;;;;;;8.93;6.50;;;0.50;99.90;;;;;;10553976;28;20077;-74
2021/03/06 00:21:08;;;;;;;9.18;6.78;;;0.50;99.90;;;;;;10553542;28;20050;-74
2021/03/06 00:26:20;;;;;;;10.35;7.13;;;0.50;99.90;;;;;;10571200;28;20535;-74
2021/03/06 00:31:22;;;;;;;10.50;7.18;;;0.40;99.90;;;;;;10571300;28;20093;-74
2021/03/06 00:36:23;;;;;;;14.32;7.78;;;0.40;99.90;;;;;;10570940;28;20503;-74
2021/03/06 00:41:26;;;;;;;10.48;7.28;;;0.30;99.90;;;;;;10571169;28;20047;-74
2021/03/06 00:46:29;;;;;;;12.98;7.65;;;0.30;99.90;;;;;;10570841;28;20083;-74
2021/03/06 00:51:32;;;;;;;16.98;10.88;;;0.20;99.90;;;;;;10569241;28;20039;-74
2021/03/06 00:56:41;;;;;;;13.43;8.20;;;0.20;99.90;;;;;;10570134;28;20040;-73
2021/03/06 01:01:42;;;;;;;13.32;7.88;;;0.10;99.90;;;;;;10570697;28;20083;-75
2021/03/06 01:06:44;;;;;;;11.80;7.05;;;0.00;99.90;;;;;;10569870;28;20127;-74
2021/03/06 01:11:46;;;;;;;10.25;6.80;;;-0.10;99.90;;;;;;10569708;28;20091;-75
2021/03/06 01:16:47;;;;;;;12.52;6.18;;;0.00;99.90;;;;;;10570305;28;20112;-75
2021/03/06 01:21:49;;;;;;;10.60;6.45;;;0.00;99.90;;;;;;10569611;28;20051;-75
2021/03/06 01:27:05;;;;;;;8.25;5.90;;;-0.10;99.90;;;;;;10569305;28;20380;-75
2021/03/06 01:32:07;;;;;;;10.52;6.03;;;0.00;99.90;;;;;;10569890;28;20068;-75
2021/03/06 01:37:08;;;;;;;8.10;6.03;;;-0.10;99.90;;;;;;10551947;28;20058;-74
2021/03/06 01:42:10;;;;;;;9.70;6.15;;;-0.10;99.90;;;;;;10568500;28;20086;-75
2021/03/06 01:47:12;;;;;;;10.15;6.15;;;-0.10;99.90;;;;;;10551498;28;20104;-75
2021/03/06 01:52:15;;;;;;;8.73;5.72;;;-0.20;99.90;;;;;;10551368;28;20102;-75
2021/03/06 01:57:27;;;;;;;7.60;5.93;;;-0.20;99.90;;;;;;10568955;28;20783;-74
2021/03/06 02:02:30;;;;;;;7.90;6.13;;;-0.30;99.90;;;;;;10568243;28;20476;-75
2021/03/06 02:07:31;;;;;;;14.57;5.97;;;-0.30;99.90;;;;;;10575048;28;20069;-75
2021/03/06 02:12:45;;;;;;;9.50;6.13;;;-0.30;99.90;;;;;;10558837;28;20101;-75
2021/03/06 02:18:03;;;;;;;10.18;6.38;;;-0.30;99.90;;;;;;10576397;28;20089;-74
2021/03/06 02:23:19;;;;;;;9.80;6.22;;;-0.30;99.90;;;;;;10576533;28;20051;-74
2021/03/06 02:28:48;;;;;;;8.75;6.07;;;-0.40;99.90;;;;;;10575763;28;20799;-75
2021/03/06 02:34:05;;;;;;;8.90;6.28;;;-0.50;99.90;;;;;;10575956;28;20090;-75
2021/03/06 02:39:12;;;;;;;8.98;5.97;;;-0.50;99.90;;;;;;10575994;28;20047;-74
2021/03/06 02:44:15;;;;;;;10.43;6.63;;;-0.60;99.90;;;;;;10575655;28;20087;-75
2021/03/06 02:49:17;;;;;;;9.85;6.60;;;-0.60;99.90;;;;;;10575529;28;20059;-75
2021/03/06 02:54:19;;;;;;;9.20;5.60;;;-0.60;99.90;;;;;;10575257;28;20059;-75
2021/03/06 02:59:47;;;;;;;8.13;5.90;;;-0.60;99.90;;;;;;10574868;28;20060;-74
2021/03/06 03:05:25;;;;;;;12.55;6.13;;;-0.60;99.90;;;;;;10542854;28;20458;-75
2021/03/06 03:10:31;;;;;;;9.65;5.85;;;-0.70;99.90;;;;;;10582515;28;20113;-75
2021/03/06 03:15:43;;;;;;;9.75;6.63;;;-0.70;99.90;;;;;;10563717;28;20491;-75
2021/03/06 03:20:52;;;;;;;12.20;6.30;;;-0.70;99.90;;;;;;10582244;28;20130;-75
2021/03/06 03:25:57;;;;;;;8.55;5.97;;;-0.80;99.90;;;;;;10582123;28;20051;-75
2021/03/06 03:31:00;;;;;;;11.07;6.32;;;-0.90;99.90;;;;;;10580917;28;20071;-74
2021/03/06 03:36:04;;;;;;;10.48;6.15;;;-0.90;99.90;;;;;;10581763;28;20131;-75
2021/03/06 03:41:09;;;;;;;11.98;6.20;;;-0.90;99.90;;;;;;10563237;28;20487;-75
2021/03/06 03:46:11;;;;;;;9.15;6.05;;;-1.00;99.90;;;;;;10581132;28;20049;-75
2021/03/06 03:51:14;;;;;;;10.07;6.25;;;-1.00;99.90;;;;;;10581468;28;20058;-74
2021/03/06 03:56:17;;;;;;;10.45;6.15;;;-1.00;99.90;;;;;;10562832;28;20086;-75
2021/03/06 04:01:18;;;;;;;9.38;6.00;;;-1.00;99.90;;;;;;10580241;28;20512;-74
2021/03/06 04:06:20;;;;;;;10.00;6.35;;;-1.00;99.90;;;;;;10574555;28;20118;-75
2021/03/06 04:11:21;;;;;;;11.65;7.32;;;-1.10;99.90;;;;;;10573102;28;20139;-75
2021/03/06 04:16:22;;;;;;;9.80;6.80;;;-1.10;99.90;;;;;;10553217;28;20387;-74
2021/03/06 04:21:24;;;;;;;11.93;6.82;;;-1.10;99.90;;;;;;10572470;28;20142;-74
2021/03/06 04:26:27;;;;;;;8.90;6.18;;;-1.10;99.90;;;;;;10571911;28;20116;-75
2021/03/06 04:31:28;;;;;;;10.07;6.50;;;-1.20;99.90;;;;;;10553522;28;20079;-74
2021/03/06 04:36:30;;;;;;;11.48;6.63;;;-1.20;99.90;;;;;;10572362;28;20046;-75
2021/03/06 04:41:32;;;;;;;10.07;5.93;;;-1.20;99.90;;;;;;10571830;28;20058;-75
2021/03/06 04:46:34;;;;;;;10.00;6.63;;;-1.30;99.90;;;;;;10571768;28;20577;-74
2021/03/06 04:51:35;;;;;;;10.60;6.80;;;-1.30;99.90;;;;;;10571720;28;20124;-74
2021/03/06 04:56:37;;;;;;;10.25;6.75;;;-1.30;99.90;;;;;;10571601;28;20109;-75
2021/03/06 05:01:39;;;;;;;9.35;6.20;;;-1.40;99.90;;;;;;10570796;28;20699;-74
2021/03/06 05:06:40;;;;;;;9.90;6.47;;;-1.40;99.90;;;;;;10570497;28;20093;-74
2021/03/06 05:11:42;;;;;;;10.05;6.78;;;-1.40;99.90;;;;;;10571391;28;20056;-74
2021/03/06 05:16:43;;;;;;;8.80;6.03;;;-1.50;99.90;;;;;;10552610;28;20148;-74
2021/03/06 05:21:45;;;;;;;9.77;6.80;;;-1.50;99.90;;;;;;10552635;28;20415;-74
2021/03/06 05:26:48;;;;;;;9.05;6.28;;;-1.40;99.90;;;;;;10570336;28;20104;-74
2021/03/06 05:31:49;;;;;;;10.45;6.82;;;-1.50;99.90;;;;;;10552551;28;20573;-74
2021/03/06 05:36:51;;;;;;;9.50;6.30;;;-1.50;99.90;;;;;;10570637;28;20461;-74
2021/03/06 05:41:53;;;;;;;10.80;6.38;;;-1.50;99.90;;;;;;10577857;28;20134;-74
2021/03/06 05:46:56;;;;;;;9.15;6.32;;;-1.50;99.90;;;;;;10578883;28;20113;-74
2021/03/06 05:52:00;;;;;;;10.90;6.43;;;-1.50;99.90;;;;;;10560458;28;20047;-75
2021/03/06 05:57:05;;;;;;;10.75;6.53;;;-1.70;99.90;;;;;;10578919;28;20051;-74
2021/03/06 06:02:07;;;;;;;9.07;6.80;;;-1.70;99.90;;;;;;10578172;28;20617;-74
2021/03/06 06:07:09;;;;;;;10.77;6.63;;;-1.70;99.90;;;;;;10578215;28;20543;-74
2021/03/06 06:12:11;;;;;;;8.75;6.55;;;-1.60;99.90;;;;;;10578159;28;20086;-73
2021/03/06 06:17:12;;;;;;;10.48;6.60;;;-1.60;99.90;;;;;;10577710;28;20062;-74
2021/03/06 06:22:18;;;;;;;9.25;6.78;;;-1.60;99.90;;;;;;10577421;28;20055;-75
2021/03/06 06:27:25;;;;;;;10.35;7.20;;;-1.60;99.90;;;;;;10559375;28;20506;-75
2021/03/06 06:32:41;;;;;;;11.70;8.00;;;-1.50;99.90;;;;;;10576908;28;20135;-75
2021/03/06 06:38:01;;;;;;;10.85;7.93;;;-1.50;99.90;;;;;;10577910;27;20048;-74
2021/03/06 06:43:24;;;;;;;11.32;7.40;;;-1.40;99.90;;;;;;10573330;28;20520;-73
2021/03/06 06:48:26;;;;;;;9.50;7.18;;;-1.30;99.90;;;;;;10575177;28;20092;-67
2021/03/06 06:53:28;;;;;;;11.63;6.72;;;-1.10;99.90;;;;;;10556281;28;20054;-67
2021/03/06 06:58:34;;;;;;;12.55;7.72;;;-1.10;99.90;;;;;;10558152;28;20518;-67
2021/03/06 07:03:35;;;;;;;12.20;7.82;;;-1.00;99.90;;;;;;10575277;28;20144;-67
2021/03/06 07:08:36;;;;;;;10.35;7.18;;;-1.00;99.90;;;;;;10574951;28;20740;-67
2021/03/06 07:13:41;;;;;;;10.43;6.97;;;-0.90;99.90;;;;;;10574687;28;20135;-67
2021/03/06 07:18:42;;;;;;;13.02;7.90;;;-0.70;99.90;;;;;;10574109;28;20472;-67
2021/03/06 07:23:44;;;;;;;11.32;7.18;;;-0.50;99.90;;;;;;10573704;28;20047;-68
2021/03/06 07:28:45;;;;;;;15.45;8.20;;;-0.50;99.90;;;;;;10574589;28;20100;-67
2021/03/06 07:33:47;;;;;;;12.23;8.88;;;-0.50;99.90;;;;;;10555771;28;20118;-67
2021/03/06 07:38:49;;;;;;;15.05;10.07;;;-0.40;99.90;;;;;;10574499;28;20047;-67
2021/03/06 07:43:54;;;;;;;11.18;7.82;;;-0.30;99.90;;;;;;10574636;28;20070;-67
2021/03/06 07:48:59;;;;;;;14.27;8.50;;;-0.10;99.90;;;;;;10557139;28;20556;-67
2021/03/06 07:54:01;;;;;;;11.57;7.68;;;0.20;99.90;;;;;;10574601;28;20416;-67
2021/03/06 07:59:04;;;;;;;24.13;10.60;;;0.50;99.90;;;;;;10556535;28;20127;-67
2021/03/06 08:04:06;;;;;;;13.98;8.95;;;0.90;99.90;;;;;;10572601;28;20108;-67
2021/03/06 08:09:11;;;;;;;14.73;8.85;;;1.30;99.90;;;;;;10555287;28;20083;-67
2021/03/06 08:14:33;;;;;;;12.18;7.75;;;1.70;99.90;;;;;;10573772;28;20114;-67
2021/03/06 08:19:42;;;;;;;12.27;7.60;;;2.10;99.90;;;;;;10573364;28;20047;-67
2021/03/06 08:24:44;;;;;;;13.63;7.50;;;2.40;99.90;;;;;;10573143;28;20528;-67
2021/03/06 08:29:52;;;;;;;13.05;7.90;;;2.50;99.90;;;;;;10571182;28;20544;-67
2021/03/06 08:35:07;;;;;;;16.17;7.80;;;3.10;99.90;;;;;;10561795;27;20051;-67
2021/03/06 08:40:15;;;;;;;13.27;8.00;;;3.20;99.90;;;;;;10570323;28;20071;-67
2021/03/06 08:45:21;;;;;;;10.57;7.47;;;3.20;99.90;;;;;;10569962;28;20484;-67
2021/03/06 08:50:24;;;;;;;11.35;7.57;;;3.20;99.90;;;;;;10566666;28;20478;-67
2021/03/06 08:55:29;;;;;;;12.77;8.10;;;3.60;99.90;;;;;;10547610;28;20128;-68
2021/03/06 09:00:37;;;;;;;11.85;7.68;;;3.60;99.90;;;;;;10566658;28;20047;-67
2021/03/06 09:05:40;;;;;;;10.90;7.68;;;3.70;99.90;;;;;;10567172;28;20055;-68
2021/03/06 09:10:44;;;;;;;12.40;7.82;;;3.80;99.90;;;;;;10548820;28;20143;-67
2021/03/06 09:15:51;;;;;;;13.18;7.57;;;4.00;99.90;;;;;;10566037;28;20471;-67
2021/03/06 09:20:59;;;;;;;14.05;7.43;;;4.10;99.90;;;;;;10548136;28;20109;-67
2021/03/06 09:26:12;;;;;;;12.82;7.53;;;4.40;99.90;;;;;;10564725;28;20131;-67
2021/03/06 09:31:18;;;;;;;12.45;7.93;;;4.70;99.90;;;;;;10568877;28;20141;-67
2021/03/06 09:36:21;;;;;;;13.98;8.15;;;4.80;99.90;;;;;;10557880;28;20088;-68
2021/03/06 09:41:33;;;;;;;10.18;7.65;;;4.90;99.90;;;;;;10568381;28;20124;-67
2021/03/06 09:46:37;;;;;;;11.15;7.53;;;5.00;98.00;;;;;;10567899;28;20036;-67
2021/03/06 09:51:43;;;;;;;16.35;8.07;;;5.30;95.90;;;;;;10568305;28;20059;-67
2021/03/06 09:56:50;;;;;;;14.13;7.25;;;5.40;95.70;;;;;;10567235;28;20586;-67
2021/03/06 10:01:52;;;;;;;12.00;6.78;;;5.50;94.30;;;;;;10568319;28;20222;-67
2021/03/06 10:06:56;;;;;;;10.65;7.30;;;5.60;95.20;;;;;;10567544;28;20407;-67
2021/03/06 10:12:15;;;;;;;14.00;7.65;;;5.90;94.10;;;;;;10549429;28;20063;-67
2021/03/06 10:17:23;;;;;;;11.43;7.00;;;6.20;92.40;;;;;;10567466;28;20102;-67
2021/03/06 10:22:29;;;;;;;14.70;6.53;;;6.30;86.90;;;;;;10568122;28;20051;-67
2021/03/06 10:27:36;;;;;;;10.80;6.35;;;6.40;83.80;;;;;;10572004;28;20071;-67
2021/03/06 10:33:00;;;;;;;9.27;6.15;;;6.50;81.70;;;;;;10575783;28;20083;-68
2021/03/06 10:38:05;;;;;;;9.68;5.95;;;6.60;78.40;;;;;;10546712;28;20079;-68
2021/03/06 10:43:09;;;;;;;10.27;6.03;;;6.70;75.50;;;;;;10573004;28;20078;-67
2021/03/06 10:48:10;;;;;;;9.35;6.50;;;6.90;71.60;;;;;;10573740;28;20408;-68
2021/03/06 10:53:17;;;;;;;12.55;6.38;;;7.00;73.50;;;;;;10576039;27;20061;-68
2021/03/06 10:58:20;;;;;;;11.50;6.50;;;7.10;71.60;;;;;;10586259;27;20134;-68
2021/03/06 11:03:21;;;;;;;9.75;6.22;;;7.10;71.30;;;;;;10573524;28;20172;-68
2021/03/06 11:08:22;;;;;;;8.95;5.85;;;7.10;68.20;;;;;;10575953;28;20089;-68
2021/03/06 11:13:43;;;;;;;9.98;5.60;;;7.10;66.00;;;;;;10574737;28;20083;-68
2021/03/06 11:18:45;;;;;;;8.27;6.30;;;6.90;63.50;;;;;;10575424;28;20118;-67
2021/03/06 11:23:46;;;;;;;10.63;5.32;;;6.90;67.90;;;;;;10575049;28;20043;-68
2021/03/06 11:28:47;;;;;;;8.38;5.43;;;7.10;65.00;;;;;;10574622;28;20048;-68
2021/03/06 11:33:49;;;;;;;8.18;5.43;;;7.10;61.70;;;;;;10574439;28;20554;-67
2021/03/06 11:38:50;;;;;;;9.80;4.80;;;7.20;62.50;;;;;;10572564;28;20112;-67
2021/03/06 11:43:52;;;;;;;7.80;5.18;;;7.30;59.50;;;;;;10572927;28;20130;-67
2021/03/06 11:48:53;;;;;;;8.40;4.63;;;7.60;58.70;;;;;;10572853;28;20483;-67
2021/03/06 11:53:55;;;;;;;7.22;4.70;;;7.60;58.40;;;;;;10573450;28;20051;-67
2021/03/06 11:58:56;;;;;;;6.75;4.35;;;7.80;56.30;;;;;;10569696;28;20039;-67
2021/03/06 12:03:58;;;;;;;7.18;4.60;;;8.00;55.00;;;;;;10554702;28;20083;-67
2021/03/06 12:08:59;;;;;;;7.25;4.43;;;8.00;55.60;;;;;;10572469;28;20123;-67
2021/03/06 12:14:00;;;;;;;6.25;4.40;;;8.20;54.50;;;;;;10554720;28;20051;-67
2021/03/06 12:19:03;;;;;;;5.60;4.15;;;8.30;52.90;;;;;;10554751;28;20471;-67
2021/03/06 12:24:05;;;;;;;5.35;3.80;;;7.90;49.60;;;;;;10572084;28;20071;-67
2021/03/06 12:29:07;;;;;;;6.55;4.13;;;8.20;52.20;;;;;;10571984;28;20071;-67
2021/03/06 12:34:08;;;;;;;6.70;4.40;;;8.30;51.70;;;;;;10572220;28;20074;-67
2021/03/06 12:39:11;;;;;;;7.03;4.75;;;8.40;52.70;;;;;;10553335;28;20039;-67
2021/03/06 12:44:12;;;;;;;7.93;4.70;;;8.40;49.80;;;;;;10571407;28;20138;-67
2021/03/06 12:49:20;;;;;;;6.88;4.63;;;8.30;52.70;;;;;;10571274;28;20126;-67
2021/03/06 12:54:22;;;;;;;7.15;4.88;;;8.30;49.70;;;;;;10564903;27;20060;-67
2021/03/06 12:59:24;;;;;;;7.47;4.80;;;8.30;51.70;;;;;;10554051;28;20119;-67
2021/03/06 13:04:25;;;;;;;8.55;4.35;;;8.70;51.50;;;;;;10569395;28;20051;-67
2021/03/06 13:09:27;;;;;;;5.72;4.03;;;8.90;51.70;;;;;;10568494;28;20075;-67
2021/03/06 13:14:32;;;;;;;6.18;4.10;;;9.00;52.20;;;;;;10570395;28;20043;-67
2021/03/06 13:19:40;;;;;;;7.10;4.10;;;8.80;50.20;;;;;;10550334;28;20067;-67
2021/03/06 13:24:42;;;;;;;6.22;4.28;;;8.90;49.60;;;;;;10569512;28;20062;-68
2021/03/06 13:29:43;;;;;;;6.78;4.45;;;9.00;48.90;;;;;;10568873;28;20094;-67
2021/03/06 13:34:45;;;;;;;6.70;4.22;;;9.10;49.80;;;;;;10567728;28;20427;-67
2021/03/06 13:39:46;;;;;;;5.85;4.07;;;9.20;48.60;;;;;;10562556;28;20136;-67
2021/03/06 13:44:48;;;;;;;5.07;3.38;;;9.30;47.20;;;;;;10568708;28;20466;-67
2021/03/06 13:49:49;;;;;;;4.32;2.28;;;9.40;45.80;;;;;;10568452;28;20140;-67
2021/03/06 13:54:51;;;;;;;4.38;2.38;;;9.40;45.00;;;;;;10574192;28;20043;-67
2021/03/06 13:59:52;;;;;;;4.90;2.80;;;9.40;42.50;;;;;;10569668;28;20535;-67
2021/03/06 14:04:54;;;;;;;5.25;3.10;;;9.30;40.40;;;;;;10575772;28;20456;-67
2021/03/06 14:09:55;;;;;;;4.65;3.10;;;9.30;42.40;;;;;;10577490;28;20075;-67
2021/03/06 14:14:57;;;;;;;3.72;2.50;;;9.40;41.30;;;;;;10577302;28;20388;-68
2021/03/06 14:19:59;;;;;;;4.97;2.47;;;9.20;40.10;;;;;;10558713;28;20043;-67
2021/03/06 14:25:00;;;;;;;4.55;2.10;;;9.30;41.20;;;;;;10576911;28;20048;-67
2021/03/06 14:30:04;;;;;;;3.13;2.10;;;9.30;38.30;;;;;;10576582;28;20092;-67
2021/03/06 14:35:06;;;;;;;5.13;2.47;;;9.40;38.20;;;;;;10575971;28;20079;-67
2021/03/06 14:40:08;;;;;;;3.78;2.20;;;9.50;37.10;;;;;;10558823;28;20079;-67
2021/03/06 14:45:10;;;;;;;3.55;2.25;;;9.60;38.60;;;;;;10575855;28;20122;-67
2021/03/06 14:50:12;;;;;;;5.05;2.60;;;9.60;37.10;;;;;;10557939;28;20388;-67
2021/03/06 14:55:14;;;;;;;5.22;2.75;;;9.60;39.00;;;;;;10576610;28;20572;-67
2021/03/06 15:00:16;;;;;;;4.90;2.53;;;9.60;39.70;;;;;;10575425;28;20503;-67
2021/03/06 15:05:18;;;;;;;3.85;2.47;;;9.40;37.80;;;;;;10575195;28;20079;-67
2021/03/06 15:10:20;;;;;;;5.15;2.50;;;9.30;36.60;;;;;;10575390;28;20078;-67
2021/03/06 15:15:22;;;;;;;3.97;2.80;;;9.20;37.70;;;;;;10574199;28;20052;-67
2021/03/06 15:20:23;;;;;;;4.03;2.55;;;9.30;37.70;;;;;;10574048;28;20096;-67
2021/03/06 15:25:24;;;;;;;3.85;2.78;;;9.20;38.90;;;;;;10575054;28;20044;-67
2021/03/06 15:30:26;;;;;;;5.32;2.70;;;9.20;39.70;;;;;;10573479;28;20134;-67
2021/03/06 15:35:28;;;;;;;5.97;2.88;;;9.30;37.40;;;;;;10570879;28;20043;-67
2021/03/06 15:40:29;;;;;;;4.55;2.85;;;9.30;37.80;;;;;;10572748;28;20090;-67
2021/03/06 15:45:33;;;;;;;4.75;2.90;;;9.20;37.40;;;;;;10554818;27;20061;-67
2021/03/06 15:50:34;;;;;;;5.03;3.25;;;9.20;38.10;;;;;;10552683;28;20457;-67
2021/03/06 15:55:36;;;;;;;5.07;3.33;;;9.10;39.90;;;;;;10569838;28;20079;-67
2021/03/06 16:00:38;;;;;;;4.00;2.80;;;9.00;40.10;;;;;;10530053;28;20087;-67
2021/03/06 16:05:40;;;;;;;4.32;3.03;;;9.00;41.70;;;;;;10565354;28;20561;-67
2021/03/06 16:10:42;;;;;;;4.38;2.95;;;8.90;42.70;;;;;;10564600;28;20150;-67
2021/03/06 16:15:43;;;;;;;4.40;2.97;;;8.80;41.50;;;;;;10560253;28;20070;-67
2021/03/06 16:20:45;;;;;;;5.80;3.25;;;8.80;41.10;;;;;;10563767;28;20077;-67
2021/03/06 16:25:47;;;;;;;9.68;5.30;;;8.50;42.80;;;;;;10544749;28;20051;-67
2021/03/06 16:30:50;;;;;;;9.32;4.05;;;8.40;40.30;;;;;;10570487;28;20126;-67
2021/03/06 16:35:52;;;;;;;5.53;3.60;;;8.30;41.20;;;;;;10570823;28;20048;-67
2021/03/06 16:40:58;;;;;;;5.68;3.65;;;8.20;40.70;;;;;;10571484;28;20511;-67
2021/03/06 16:45:59;;;;;;;5.30;3.88;;;8.10;42.50;;;;;;10567670;28;20131;-68
2021/03/06 16:51:02;;;;;;;6.15;4.43;;;8.00;43.00;;;;;;10569940;28;20043;-67
2021/03/06 16:56:04;;;;;;;7.53;4.22;;;7.90;42.80;;;;;;10550224;28;20040;-67
2021/03/06 17:01:05;;;;;;;6.25;3.78;;;7.70;43.70;;;;;;10571063;28;20136;-67
2021/03/06 17:06:07;;;;;;;5.60;3.72;;;7.60;45.70;;;;;;10561363;27;20446;-67
2021/03/06 17:11:09;;;;;;;5.57;4.07;;;7.40;44.90;;;;;;10550573;28;20132;-67
2021/03/06 17:16:10;;;;;;;7.10;4.40;;;7.10;48.80;;;;;;10548406;28;20400;-67
2021/03/06 17:21:12;;;;;;;19.15;4.85;;;6.80;46.70;;;;;;10552813;28;20187;-67
2021/03/06 17:26:13;;;;;;;32.55;6.30;;;6.70;49.00;;;;;;10570453;28;20051;-67
2021/03/06 17:31:14;;;;;;;15.30;5.68;;;6.50;48.70;;;;;;10571434;28;20040;-67
2021/03/06 17:36:16;;;;;;;8.35;4.88;;;6.30;49.00;;;;;;10557573;28;20055;-67
2021/03/06 17:41:21;;;;;;;43.15;5.80;;;6.20;49.20;;;;;;10579792;28;20043;-67
2021/03/06 17:46:23;;;;;;;61.10;6.10;;;6.00;50.20;;;;;;10578804;28;20430;-67
2021/03/06 17:51:24;;;;;;;20.02;6.10;;;5.90;50.40;;;;;;10579388;28;20124;-67
2021/03/06 17:56:26;;;;;;;14.98;6.82;;;5.70;51.40;;;;;;10579219;28;20075;-67
2021/03/06 18:01:27;;;;;;;11.98;7.05;;;5.60;52.50;;;;;;10560494;28;20052;-67
2021/03/06 18:06:29;;;;;;;13.98;7.30;;;5.40;53.80;;;;;;10578933;28;20083;-67
2021/03/06 18:11:30;;;;;;;10.65;7.15;;;5.20;54.00;;;;;;10560270;28;20043;-67
2021/03/06 18:16:33;;;;;;;13.85;7.00;;;5.10;55.00;;;;;;10557450;28;20464;-76
2021/03/06 18:21:34;;;;;;;15.25;10.27;;;5.00;55.40;;;;;;10577723;28;20454;-75
2021/03/06 18:26:36;;;;;;;20.40;12.07;;;4.80;56.70;;;;;;10558975;28;20472;-75
2021/03/06 18:31:38;;;;;;;12.40;7.95;;;4.70;58.70;;;;;;10575671;28;20116;-75
2021/03/06 18:36:40;;;;;;;8.98;5.45;;;4.50;59.30;;;;;;10575968;28;20122;-75
2021/03/06 18:41:42;;;;;;;9.35;5.72;;;4.30;61.30;;;;;;10575968;28;20408;-74
2021/03/06 18:46:43;;;;;;;10.55;7.03;;;4.20;62.90;;;;;;10575516;28;20972;-74
2021/03/06 18:51:45;;;;;;;16.48;12.57;;;4.10;62.70;;;;;;10544889;28;20055;-74
2021/03/06 18:56:46;;;;;;;15.43;10.18;;;3.90;63.80;;;;;;10575659;28;20075;-74
2021/03/06 19:01:48;;;;;;;11.05;7.25;;;3.70;65.10;;;;;;10575163;28;20138;-75
2021/03/06 19:06:50;;;;;;;10.88;7.18;;;3.50;67.80;;;;;;10576317;28;20089;-75
2021/03/06 19:11:51;;;;;;;11.10;6.70;;;3.50;69.00;;;;;;10574974;28;20132;-74
2021/03/06 19:16:52;;;;;;;11.45;7.07;;;3.40;72.40;;;;;;10570322;28;20497;-74
2021/03/06 19:21:54;;;;;;;9.98;6.90;;;3.30;73.90;;;;;;10571834;28;20414;-74
2021/03/06 19:26:56;;;;;;;11.77;7.50;;;3.20;75.60;;;;;;10556576;28;20043;-74
2021/03/06 19:31:57;;;;;;;12.98;7.53;;;3.00;79.60;;;;;;10573577;28;20083;-74
2021/03/06 19:36:59;;;;;;;12.73;8.68;;;3.10;85.40;;;;;;10573542;28;20048;-74
2021/03/06 19:42:01;;;;;;;13.05;8.18;;;2.90;85.30;;;;;;10573358;28;20097;-74
2021/03/06 19:47:02;;;;;;;12.10;8.32;;;2.80;90.60;;;;;;10573227;28;20097;-75
2021/03/06 19:52:04;;;;;;;10.02;7.03;;;2.60;93.20;;;;;;10573255;28;20063;-75
2021/03/06 19:57:06;;;;;;;8.95;6.20;;;2.60;93.40;;;;;;10573041;28;20075;-74
2021/03/06 20:02:08;;;;;;;10.70;6.25;;;2.50;93.50;;;;;;10571230;28;20059;-75
2021/03/06 20:07:10;;;;;;;9.95;6.25;;;2.40;95.50;;;;;;10571954;28;20491;-74
2021/03/06 20:12:11;;;;;;;11.30;6.70;;;2.30;97.70;;;;;;10503310;28;20122;-75
2021/03/06 20:17:14;;;;;;;10.88;7.20;;;2.30;98.70;;;;;;10487823;28;20048;-75
2021/03/06 20:22:18;;;;;;;11.18;6.85;;;2.20;98.30;;;;;;10486903;28;20558;-74
2021/03/06 20:27:19;;;;;;;11.90;7.60;;;2.10;99.90;;;;;;10486402;28;20127;-74
2021/03/06 20:32:22;;;;;;;11.77;7.25;;;2.00;99.90;;;;;;10486684;28;20080;-75
2021/03/06 20:37:23;;;;;;;12.70;6.93;;;2.00;99.90;;;;;;10487252;28;20058;-75
2021/03/06 20:42:25;;;;;;;12.52;6.97;;;2.00;99.90;;;;;;10487077;28;20052;-75
2021/03/06 20:47:26;;;;;;;9.57;7.07;;;1.90;99.90;;;;;;10486031;28;20144;-74
2021/03/06 20:52:28;;;;;;;10.15;6.75;;;1.80;99.90;;;;;;10484690;28;20051;-75
2021/03/06 20:57:29;;;;;;;8.20;6.28;;;1.80;99.90;;;;;;10485547;28;20052;-74
2021/03/06 21:02:31;;;;;;;9.40;6.32;;;1.80;99.90;;;;;;10486214;28;20084;-75
2021/03/06 21:07:32;;;;;;;12.15;8.98;;;1.70;99.90;;;;;;10486315;28;20048;-75
2021/03/06 21:12:34;;;;;;;31.58;16.98;;;1.70;99.90;;;;;;10543661;28;20109;-75
2021/03/06 21:17:36;;;;;;;26.30;16.90;;;1.60;99.90;;;;;;10569220;28;20061;-74
2021/03/06 21:22:38;;;;;;;14.82;8.85;;;1.60;99.90;;;;;;10569296;28;20278;-74
2021/03/06 21:27:39;;;;;;;13.02;7.78;;;1.40;99.90;;;;;;10569348;28;20075;-75
2021/03/06 21:32:41;;;;;;;11.05;6.88;;;1.40;99.90;;;;;;10569587;28;20415;-75
2021/03/06 21:37:43;;;;;;;12.07;7.18;;;1.30;99.90;;;;;;10569480;28;20056;-75
2021/03/06 21:42:44;;;;;;;12.93;7.13;;;1.30;99.90;;;;;;10550220;28;20052;-75
2021/03/06 21:47:46;;;;;;;10.10;7.22;;;1.20;99.90;;;;;;10567865;28;20130;-75
2021/03/06 21:52:47;;;;;;;10.77;7.22;;;1.10;99.90;;;;;;10533713;28;20054;-75
2021/03/06 21:57:49;;;;;;;11.70;7.97;;;1.10;99.90;;;;;;10569368;28;20132;-75
2021/03/06 22:02:51;;;;;;;13.40;8.13;;;1.10;99.90;;;;;;10569411;28;20050;-75
2021/03/06 22:07:52;;;;;;;13.18;8.18;;;1.10;99.90;;;;;;10568748;28;20056;-75
2021/03/06 22:12:54;;;;;;;12.32;8.60;;;1.00;99.90;;;;;;10568197;28;20569;-74
2021/03/06 22:17:56;;;;;;;15.95;10.18;;;0.90;99.90;;;;;;10550940;28;20075;-75
2021/03/06 22:22:57;;;;;;;25.98;12.55;;;0.80;99.90;;;;;;10572111;28;20090;-74
2021/03/06 22:27:59;;;;;;;19.67;12.20;;;0.80;99.90;;;;;;10576484;28;20074;-75
2021/03/06 22:33:00;;;;;;;60.92;36.10;;;0.80;99.90;;;;;;10576177;28;20059;-75
2021/03/06 22:38:03;;;;;;;19.08;11.85;;;0.70;99.90;;;;;;10575443;28;20104;-75
2021/03/06 22:43:05;;;;;;;15.38;9.63;;;0.80;99.90;;;;;;10574915;28;20078;-75
2021/03/06 22:48:07;;;;;;;16.05;10.13;;;0.70;99.90;;;;;;10575643;28;20071;-75
2021/03/06 22:53:08;;;;;;;15.98;9.50;;;0.60;99.90;;;;;;10576321;28;20052;-75
2021/03/06 22:58:11;;;;;;;18.35;11.00;;;0.60;99.90;;;;;;10574966;28;20051;-75
2021/03/06 23:03:12;;;;;;;16.15;10.05;;;0.60;99.90;;;;;;10574375;28;20124;-76
2021/03/06 23:08:17;;;;;;;20.08;11.45;;;0.50;99.90;;;;;;10574024;28;20052;-75
2021/03/06 23:13:18;;;;;;;16.13;10.23;;;0.50;99.90;;;;;;10531060;28;20083;-75
2021/03/06 23:18:20;;;;;;;16.10;10.57;;;0.40;99.90;;;;;;10532238;28;20124;-74
2021/03/06 23:23:24;;;;;;;15.70;10.90;;;0.40;99.90;;;;;;10532011;28;20064;-75
2021/03/06 23:28:26;;;;;;;16.48;10.10;;;0.40;99.90;;;;;;10531450;28;20445;-75
2021/03/06 23:33:31;;;;;;;12.10;8.75;;;0.40;99.90;;;;;;10530930;28;20572;-75
2021/03/06 23:38:32;;;;;;;12.15;8.45;;;0.30;99.90;;;;;;10531114;28;20071;-75
2021/03/06 23:43:34;;;;;;;12.95;8.40;;;0.30;99.90;;;;;;10529584;28;20097;-75
2021/03/06 23:48:43;;;;;;;12.88;9.05;;;0.10;99.90;;;;;;10529703;28;20048;-75
2021/03/06 23:53:45;;;;;;;14.98;9.10;;;0.00;99.90;;;;;;10530983;28;20779;-75
2021/03/06 23:58:46;;;;;;;15.55;9.63;;;0.00;99.90;;;;;;10530820;28;20052;-75
